sensor_id;sensor_type;location;lat;lon;timestamp;P1;durP1;ratioP1;P2;durP2;ratioP2
49812;SDS011;35706;52.100;5.056;2022-07-19T00:02:30;23.88;;;17.60;;
49812;SDS011;35706;52.100;5.056;2022-07-19T00:05:16;35.20;;;27.45;;
49812;SDS011;35706;52.100;5.056;2022-07-19T00:08:03;5.90;;;4.45;;
49812;SDS011;35706;52.100;5.056;2022-07-19T00:10:49;3.95;;;0.70;;
49812;SDS011;35706;52.100;5.056;2022-07-19T00:13:35;1.20;;;0.50;;
49812;SDS011;35706;52.100;5.056;2022-07-19T00:16:20;1.00;;;0.50;;
49812;SDS011;35706;52.100;5.056;2022-07-19T00:19:06;2.08;;;0.50;;
49812;SDS011;35706;52.100;5.056;2022-07-19T00:21:52;2.22;;;0.60;;
49812;SDS011;35706;52.100;5.056;2022-07-19T00:24:38;1.38;;;0.50;;
49812;SDS011;35706;52.100;5.056;2022-07-19T00:27:23;2.40;;;0.52;;
49812;SDS011;35706;52.100;5.056;2022-07-19T00:30:09;7.43;;;0.50;;
49812;SDS011;35706;52.100;5.056;2022-07-19T00:32:55;4.93;;;0.60;;
49812;SDS011;35706;52.100;5.056;2022-07-19T00:35:41;2.65;;;0.50;;
49812;SDS011;35706;52.100;5.056;2022-07-19T00:38:27;2.33;;;0.60;;
49812;SDS011;35706;52.100;5.056;2022-07-19T00:41:12;2.92;;;0.75;;
49812;SDS011;35706;52.100;5.056;2022-07-19T00:43:58;2.05;;;0.50;;
49812;SDS011;35706;52.100;5.056;2022-07-19T00:46:44;3.67;;;0.60;;
49812;SDS011;35706;52.100;5.056;2022-07-19T00:49:29;4.13;;;0.50;;
49812;SDS011;35706;52.100;5.056;2022-07-19T00:52:15;1.30;;;0.50;;
49812;SDS011;35706;52.100;5.056;2022-07-19T00:55:03;3.33;;;0.70;;
49812;SDS011;35706;52.100;5.056;2022-07-19T00:57:50;2.45;;;0.60;;
49812;SDS011;35706;52.100;5.056;2022-07-19T01:00:36;1.90;;;0.60;;
49812;SDS011;35706;52.100;5.056;2022-07-19T01:03:24;0.73;;;0.40;;
49812;SDS011;35706;52.100;5.056;2022-07-19T01:06:10;3.42;;;0.60;;
49812;SDS011;35706;52.100;5.056;2022-07-19T01:08:56;3.58;;;0.50;;
49812;SDS011;35706;52.100;5.056;2022-07-19T01:11:42;2.45;;;0.60;;
49812;SDS011;35706;52.100;5.056;2022-07-19T01:14:27;1.55;;;0.50;;
49812;SDS011;35706;52.100;5.056;2022-07-19T01:17:13;1.20;;;0.50;;
49812;SDS011;35706;52.100;5.056;2022-07-19T01:19:59;2.75;;;0.50;;
49812;SDS011;35706;52.100;5.056;2022-07-19T01:22:44;3.53;;;0.60;;
49812;SDS011;35706;52.100;5.056;2022-07-19T01:25:31;3.40;;;0.57;;
49812;SDS011;35706;52.100;5.056;2022-07-19T01:28:18;2.20;;;0.60;;
49812;SDS011;35706;52.100;5.056;2022-07-19T01:31:04;19.00;;;13.75;;
49812;SDS011;35706;52.100;5.056;2022-07-19T01:33:50;84.15;;;55.72;;
49812;SDS011;35706;52.100;5.056;2022-07-19T01:36:36;69.15;;;40.55;;
49812;SDS011;35706;52.100;5.056;2022-07-19T01:39:21;95.20;;;68.18;;
49812;SDS011;35706;52.100;5.056;2022-07-19T01:42:07;2.33;;;0.50;;
49812;SDS011;35706;52.100;5.056;2022-07-19T01:44:53;3.45;;;0.50;;
49812;SDS011;35706;52.100;5.056;2022-07-19T01:47:38;2.15;;;0.50;;
49812;SDS011;35706;52.100;5.056;2022-07-19T01:50:26;1.10;;;0.50;;
49812;SDS011;35706;52.100;5.056;2022-07-19T01:53:12;1.70;;;0.55;;
49812;SDS011;35706;52.100;5.056;2022-07-19T01:55:57;4.07;;;0.60;;
49812;SDS011;35706;52.100;5.056;2022-07-19T01:58:43;4.68;;;0.60;;
49812;SDS011;35706;52.100;5.056;2022-07-19T02:01:28;1.50;;;0.50;;
49812;SDS011;35706;52.100;5.056;2022-07-19T02:04:14;1.10;;;0.60;;
49812;SDS011;35706;52.100;5.056;2022-07-19T02:07:00;1.08;;;0.50;;
49812;SDS011;35706;52.100;5.056;2022-07-19T02:09:45;1.20;;;0.40;;
49812;SDS011;35706;52.100;5.056;2022-07-19T02:12:31;3.22;;;0.50;;
49812;SDS011;35706;52.100;5.056;2022-07-19T02:15:17;2.45;;;0.50;;
49812;SDS011;35706;52.100;5.056;2022-07-19T02:18:02;2.53;;;0.50;;
49812;SDS011;35706;52.100;5.056;2022-07-19T02:20:48;1.10;;;0.50;;
49812;SDS011;35706;52.100;5.056;2022-07-19T02:23:34;1.50;;;0.60;;
49812;SDS011;35706;52.100;5.056;2022-07-19T02:26:19;1.65;;;0.50;;
49812;SDS011;35706;52.100;5.056;2022-07-19T02:29:05;2.22;;;0.50;;
49812;SDS011;35706;52.100;5.056;2022-07-19T02:31:51;1.60;;;0.50;;
49812;SDS011;35706;52.100;5.056;2022-07-19T02:34:37;3.72;;;0.60;;
49812;SDS011;35706;52.100;5.056;2022-07-19T02:37:22;2.42;;;0.50;;
49812;SDS011;35706;52.100;5.056;2022-07-19T02:40:08;2.08;;;0.60;;
49812;SDS011;35706;52.100;5.056;2022-07-19T02:42:55;1.58;;;0.60;;
49812;SDS011;35706;52.100;5.056;2022-07-19T02:45:41;4.80;;;0.60;;
49812;SDS011;35706;52.100;5.056;2022-07-19T02:48:26;6.05;;;0.60;;
49812;SDS011;35706;52.100;5.056;2022-07-19T02:51:12;6.15;;;0.60;;
49812;SDS011;35706;52.100;5.056;2022-07-19T02:53:57;2.92;;;0.60;;
49812;SDS011;35706;52.100;5.056;2022-07-19T02:56:43;1.13;;;0.60;;
49812;SDS011;35706;52.100;5.056;2022-07-19T02:59:30;1.52;;;0.60;;
49812;SDS011;35706;52.100;5.056;2022-07-19T03:02:16;8.70;;;0.60;;
49812;SDS011;35706;52.100;5.056;2022-07-19T03:05:02;2.42;;;0.70;;
49812;SDS011;35706;52.100;5.056;2022-07-19T03:07:48;9.38;;;0.60;;
49812;SDS011;35706;52.100;5.056;2022-07-19T03:10:33;3.25;;;0.60;;
49812;SDS011;35706;52.100;5.056;2022-07-19T03:13:19;1.85;;;0.60;;
49812;SDS011;35706;52.100;5.056;2022-07-19T03:16:05;5.88;;;0.60;;
49812;SDS011;35706;52.100;5.056;2022-07-19T03:18:51;4.10;;;0.70;;
49812;SDS011;35706;52.100;5.056;2022-07-19T03:21:36;3.45;;;0.70;;
49812;SDS011;35706;52.100;5.056;2022-07-19T03:24:22;3.38;;;0.70;;
49812;SDS011;35706;52.100;5.056;2022-07-19T03:27:08;10.07;;;0.80;;
49812;SDS011;35706;52.100;5.056;2022-07-19T03:29:53;2.78;;;0.70;;
49812;SDS011;35706;52.100;5.056;2022-07-19T03:32:39;3.67;;;0.80;;
49812;SDS011;35706;52.100;5.056;2022-07-19T03:35:25;2.42;;;0.70;;
49812;SDS011;35706;52.100;5.056;2022-07-19T03:38:11;2.92;;;0.70;;
49812;SDS011;35706;52.100;5.056;2022-07-19T03:40:58;9.93;;;0.70;;
49812;SDS011;35706;52.100;5.056;2022-07-19T03:43:43;6.32;;;0.70;;
49812;SDS011;35706;52.100;5.056;2022-07-19T03:46:29;1.48;;;0.60;;
49812;SDS011;35706;52.100;5.056;2022-07-19T03:49:15;2.83;;;0.80;;
49812;SDS011;35706;52.100;5.056;2022-07-19T03:52:00;2.70;;;0.80;;
49812;SDS011;35706;52.100;5.056;2022-07-19T03:54:46;4.00;;;0.80;;
49812;SDS011;35706;52.100;5.056;2022-07-19T03:57:32;4.30;;;0.70;;
49812;SDS011;35706;52.100;5.056;2022-07-19T04:00:17;4.45;;;0.80;;
49812;SDS011;35706;52.100;5.056;2022-07-19T04:03:03;2.03;;;0.60;;
49812;SDS011;35706;52.100;5.056;2022-07-19T04:05:49;3.00;;;0.73;;
49812;SDS011;35706;52.100;5.056;2022-07-19T04:08:35;2.70;;;0.68;;
49812;SDS011;35706;52.100;5.056;2022-07-19T04:11:20;2.22;;;0.70;;
49812;SDS011;35706;52.100;5.056;2022-07-19T04:14:06;4.47;;;0.70;;
49812;SDS011;35706;52.100;5.056;2022-07-19T04:16:52;2.65;;;0.70;;
49812;SDS011;35706;52.100;5.056;2022-07-19T04:19:37;3.15;;;0.70;;
49812;SDS011;35706;52.100;5.056;2022-07-19T04:22:23;2.58;;;0.60;;
49812;SDS011;35706;52.100;5.056;2022-07-19T04:25:09;2.15;;;0.60;;
49812;SDS011;35706;52.100;5.056;2022-07-19T04:27:55;3.90;;;0.60;;
49812;SDS011;35706;52.100;5.056;2022-07-19T04:30:40;3.95;;;0.60;;
49812;SDS011;35706;52.100;5.056;2022-07-19T04:33:26;1.42;;;0.52;;
49812;SDS011;35706;52.100;5.056;2022-07-19T04:36:12;4.82;;;0.60;;
49812;SDS011;35706;52.100;5.056;2022-07-19T04:38:57;7.85;;;0.63;;
49812;SDS011;35706;52.100;5.056;2022-07-19T04:41:43;2.20;;;0.50;;
49812;SDS011;35706;52.100;5.056;2022-07-19T04:44:28;4.47;;;0.60;;
49812;SDS011;35706;52.100;5.056;2022-07-19T04:47:15;3.13;;;0.50;;
49812;SDS011;35706;52.100;5.056;2022-07-19T04:50:00;2.45;;;0.60;;
49812;SDS011;35706;52.100;5.056;2022-07-19T04:52:46;4.93;;;0.60;;
49812;SDS011;35706;52.100;5.056;2022-07-19T04:55:32;1.00;;;0.50;;
49812;SDS011;35706;52.100;5.056;2022-07-19T04:58:18;4.10;;;0.60;;
49812;SDS011;35706;52.100;5.056;2022-07-19T05:01:04;2.42;;;0.50;;
49812;SDS011;35706;52.100;5.056;2022-07-19T05:03:51;4.00;;;0.50;;
49812;SDS011;35706;52.100;5.056;2022-07-19T05:06:36;2.30;;;0.50;;
49812;SDS011;35706;52.100;5.056;2022-07-19T05:09:23;3.90;;;0.50;;
49812;SDS011;35706;52.100;5.056;2022-07-19T05:12:12;5.07;;;0.95;;
49812;SDS011;35706;52.100;5.056;2022-07-19T05:14:58;3.42;;;0.50;;
49812;SDS011;35706;52.100;5.056;2022-07-19T05:17:44;7.63;;;0.45;;
49812;SDS011;35706;52.100;5.056;2022-07-19T05:20:29;3.08;;;0.50;;
49812;SDS011;35706;52.100;5.056;2022-07-19T05:23:15;5.88;;;0.50;;
49812;SDS011;35706;52.100;5.056;2022-07-19T05:26:02;5.53;;;0.50;;
49812;SDS011;35706;52.100;5.056;2022-07-19T05:28:48;3.63;;;0.50;;
49812;SDS011;35706;52.100;5.056;2022-07-19T05:31:34;1.45;;;0.45;;
49812;SDS011;35706;52.100;5.056;2022-07-19T05:34:19;2.40;;;0.50;;
49812;SDS011;35706;52.100;5.056;2022-07-19T05:37:05;4.95;;;0.50;;
49812;SDS011;35706;52.100;5.056;2022-07-19T05:39:51;11.68;;;0.90;;
49812;SDS011;35706;52.100;5.056;2022-07-19T05:42:37;4.18;;;0.50;;
49812;SDS011;35706;52.100;5.056;2022-07-19T05:45:22;8.27;;;0.50;;
49812;SDS011;35706;52.100;5.056;2022-07-19T05:48:08;7.95;;;0.50;;
49812;SDS011;35706;52.100;5.056;2022-07-19T05:50:54;3.17;;;0.50;;
49812;SDS011;35706;52.100;5.056;2022-07-19T05:53:40;8.82;;;0.90;;
49812;SDS011;35706;52.100;5.056;2022-07-19T05:56:26;2.03;;;0.50;;
49812;SDS011;35706;52.100;5.056;2022-07-19T05:59:12;8.57;;;0.40;;
49812;SDS011;35706;52.100;5.056;2022-07-19T06:01:58;3.28;;;0.57;;
49812;SDS011;35706;52.100;5.056;2022-07-19T06:04:44;3.03;;;0.50;;
49812;SDS011;35706;52.100;5.056;2022-07-19T06:07:29;4.97;;;0.50;;
49812;SDS011;35706;52.100;5.056;2022-07-19T06:10:15;7.22;;;0.50;;
49812;SDS011;35706;52.100;5.056;2022-07-19T06:13:01;6.28;;;0.60;;
49812;SDS011;35706;52.100;5.056;2022-07-19T06:15:46;4.30;;;0.47;;
49812;SDS011;35706;52.100;5.056;2022-07-19T06:18:32;3.92;;;0.50;;
49812;SDS011;35706;52.100;5.056;2022-07-19T06:21:22;6.20;;;0.50;;
49812;SDS011;35706;52.100;5.056;2022-07-19T06:24:08;4.82;;;0.60;;
49812;SDS011;35706;52.100;5.056;2022-07-19T06:26:53;5.68;;;0.60;;
49812;SDS011;35706;52.100;5.056;2022-07-19T06:29:39;2.85;;;0.50;;
49812;SDS011;35706;52.100;5.056;2022-07-19T06:32:25;4.40;;;0.50;;
49812;SDS011;35706;52.100;5.056;2022-07-19T06:35:11;8.13;;;0.60;;
49812;SDS011;35706;52.100;5.056;2022-07-19T06:37:57;5.05;;;0.90;;
49812;SDS011;35706;52.100;5.056;2022-07-19T06:40:42;10.68;;;0.60;;
49812;SDS011;35706;52.100;5.056;2022-07-19T06:43:28;16.40;;;0.60;;
49812;SDS011;35706;52.100;5.056;2022-07-19T06:46:14;5.20;;;0.60;;
49812;SDS011;35706;52.100;5.056;2022-07-19T06:48:59;5.50;;;0.60;;
49812;SDS011;35706;52.100;5.056;2022-07-19T06:51:45;5.30;;;0.50;;
49812;SDS011;35706;52.100;5.056;2022-07-19T06:54:31;1.35;;;0.50;;
49812;SDS011;35706;52.100;5.056;2022-07-19T06:57:16;3.50;;;0.60;;
49812;SDS011;35706;52.100;5.056;2022-07-19T07:00:03;8.43;;;0.70;;
49812;SDS011;35706;52.100;5.056;2022-07-19T07:02:50;8.13;;;1.10;;
49812;SDS011;35706;52.100;5.056;2022-07-19T07:05:35;5.18;;;0.70;;
49812;SDS011;35706;52.100;5.056;2022-07-19T07:08:21;2.78;;;0.50;;
49812;SDS011;35706;52.100;5.056;2022-07-19T07:11:07;2.47;;;0.60;;
49812;SDS011;35706;52.100;5.056;2022-07-19T07:13:53;2.78;;;0.63;;
49812;SDS011;35706;52.100;5.056;2022-07-19T07:16:38;6.43;;;0.70;;
49812;SDS011;35706;52.100;5.056;2022-07-19T07:19:24;3.95;;;0.60;;
49812;SDS011;35706;52.100;5.056;2022-07-19T07:22:10;4.25;;;0.50;;
49812;SDS011;35706;52.100;5.056;2022-07-19T07:24:56;4.13;;;0.50;;
49812;SDS011;35706;52.100;5.056;2022-07-19T07:27:41;6.00;;;0.63;;
49812;SDS011;35706;52.100;5.056;2022-07-19T07:30:27;6.82;;;0.50;;
49812;SDS011;35706;52.100;5.056;2022-07-19T07:33:13;4.32;;;0.50;;
49812;SDS011;35706;52.100;5.056;2022-07-19T07:35:58;2.22;;;0.60;;
49812;SDS011;35706;52.100;5.056;2022-07-19T07:38:44;6.97;;;0.50;;
49812;SDS011;35706;52.100;5.056;2022-07-19T07:41:30;3.95;;;0.50;;
49812;SDS011;35706;52.100;5.056;2022-07-19T07:44:15;7.55;;;0.50;;
49812;SDS011;35706;52.100;5.056;2022-07-19T07:47:01;3.42;;;0.60;;
49812;SDS011;35706;52.100;5.056;2022-07-19T07:49:47;5.22;;;0.45;;
49812;SDS011;35706;52.100;5.056;2022-07-19T07:52:35;2.85;;;0.50;;
49812;SDS011;35706;52.100;5.056;2022-07-19T07:55:00;5.00;;;0.50;;
49812;SDS011;35706;52.100;5.056;2022-07-19T07:57:26;5.57;;;0.50;;
49812;SDS011;35706;52.100;5.056;2022-07-19T07:59:52;7.05;;;0.50;;
49812;SDS011;35706;52.100;5.056;2022-07-19T08:02:17;1.88;;;0.40;;
49812;SDS011;35706;52.100;5.056;2022-07-19T08:04:42;4.53;;;0.70;;
49812;SDS011;35706;52.100;5.056;2022-07-19T08:07:08;5.20;;;0.55;;
49812;SDS011;35706;52.100;5.056;2022-07-19T08:09:33;7.30;;;0.77;;
49812;SDS011;35706;52.100;5.056;2022-07-19T08:11:59;8.02;;;0.60;;
49812;SDS011;35706;52.100;5.056;2022-07-19T08:14:24;7.30;;;0.50;;
49812;SDS011;35706;52.100;5.056;2022-07-19T08:16:49;7.05;;;0.50;;
49812;SDS011;35706;52.100;5.056;2022-07-19T08:19:15;4.88;;;0.50;;
49812;SDS011;35706;52.100;5.056;2022-07-19T08:21:40;5.55;;;0.52;;
49812;SDS011;35706;52.100;5.056;2022-07-19T08:24:05;4.07;;;0.55;;
49812;SDS011;35706;52.100;5.056;2022-07-19T08:26:31;4.43;;;0.40;;
49812;SDS011;35706;52.100;5.056;2022-07-19T08:28:56;6.60;;;0.50;;
49812;SDS011;35706;52.100;5.056;2022-07-19T08:31:22;1.50;;;0.50;;
49812;SDS011;35706;52.100;5.056;2022-07-19T08:33:47;2.60;;;0.50;;
49812;SDS011;35706;52.100;5.056;2022-07-19T08:36:12;9.30;;;0.60;;
49812;SDS011;35706;52.100;5.056;2022-07-19T08:38:38;1.30;;;0.50;;
49812;SDS011;35706;52.100;5.056;2022-07-19T08:41:04;4.68;;;0.50;;
49812;SDS011;35706;52.100;5.056;2022-07-19T08:43:30;4.70;;;0.55;;
49812;SDS011;35706;52.100;5.056;2022-07-19T08:46:00;3.40;;;0.60;;
49812;SDS011;35706;52.100;5.056;2022-07-19T08:48:29;3.58;;;0.50;;
49812;SDS011;35706;52.100;5.056;2022-07-19T08:50:56;2.65;;;0.57;;
49812;SDS011;35706;52.100;5.056;2022-07-19T08:53:21;7.28;;;0.50;;
49812;SDS011;35706;52.100;5.056;2022-07-19T08:55:48;4.30;;;0.50;;
49812;SDS011;35706;52.100;5.056;2022-07-19T08:58:14;4.53;;;0.60;;
49812;SDS011;35706;52.100;5.056;2022-07-19T09:00:40;5.28;;;0.50;;
49812;SDS011;35706;52.100;5.056;2022-07-19T09:03:06;2.35;;;0.50;;
49812;SDS011;35706;52.100;5.056;2022-07-19T09:05:33;5.07;;;0.50;;
49812;SDS011;35706;52.100;5.056;2022-07-19T09:08:04;4.07;;;0.50;;
49812;SDS011;35706;52.100;5.056;2022-07-19T09:10:29;4.05;;;0.50;;
49812;SDS011;35706;52.100;5.056;2022-07-19T09:15:37;6.63;;;0.60;;
49812;SDS011;35706;52.100;5.056;2022-07-19T09:20:47;3.53;;;0.40;;
49812;SDS011;35706;52.100;5.056;2022-07-19T09:23:14;9.18;;;0.93;;
49812;SDS011;35706;52.100;5.056;2022-07-19T09:25:47;2.92;;;0.60;;
49812;SDS011;35706;52.100;5.056;2022-07-19T09:28:16;5.57;;;0.50;;
49812;SDS011;35706;52.100;5.056;2022-07-19T09:30:44;2.15;;;0.40;;
49812;SDS011;35706;52.100;5.056;2022-07-19T09:43:31;3.38;;;0.50;;
49812;SDS011;35706;52.100;5.056;2022-07-19T09:45:56;2.28;;;0.50;;
49812;SDS011;35706;52.100;5.056;2022-07-19T09:48:21;2.83;;;0.50;;
49812;SDS011;35706;52.100;5.056;2022-07-19T09:51:07;2.40;;;0.40;;
49812;SDS011;35706;52.100;5.056;2022-07-19T09:53:33;4.35;;;0.50;;
49812;SDS011;35706;52.100;5.056;2022-07-19T09:55:59;7.85;;;0.57;;
49812;SDS011;35706;52.100;5.056;2022-07-19T09:58:25;4.68;;;0.70;;
49812;SDS011;35706;52.100;5.056;2022-07-19T10:00:51;2.65;;;0.50;;
49812;SDS011;35706;52.100;5.056;2022-07-19T10:03:16;1.77;;;0.40;;
49812;SDS011;35706;52.100;5.056;2022-07-19T10:05:43;8.57;;;0.45;;
49812;SDS011;35706;52.100;5.056;2022-07-19T10:08:09;4.25;;;0.40;;
49812;SDS011;35706;52.100;5.056;2022-07-19T10:10:35;1.70;;;0.50;;
49812;SDS011;35706;52.100;5.056;2022-07-19T10:13:00;3.95;;;0.43;;
49812;SDS011;35706;52.100;5.056;2022-07-19T10:15:28;5.63;;;0.40;;
49812;SDS011;35706;52.100;5.056;2022-07-19T10:18:09;3.35;;;0.40;;
49812;SDS011;35706;52.100;5.056;2022-07-19T10:20:37;2.13;;;0.40;;
49812;SDS011;35706;52.100;5.056;2022-07-19T10:23:05;2.45;;;0.40;;
49812;SDS011;35706;52.100;5.056;2022-07-19T10:25:41;4.93;;;0.40;;
49812;SDS011;35706;52.100;5.056;2022-07-19T10:30:57;2.30;;;0.40;;
49812;SDS011;35706;52.100;5.056;2022-07-19T10:33:26;1.75;;;0.38;;
49812;SDS011;35706;52.100;5.056;2022-07-19T10:35:57;2.75;;;0.40;;
49812;SDS011;35706;52.100;5.056;2022-07-19T10:38:22;4.90;;;0.30;;
49812;SDS011;35706;52.100;5.056;2022-07-19T10:40:52;1.60;;;0.40;;
49812;SDS011;35706;52.100;5.056;2022-07-19T10:43:23;3.95;;;0.40;;
49812;SDS011;35706;52.100;5.056;2022-07-19T10:48:21;2.08;;;0.30;;
49812;SDS011;35706;52.100;5.056;2022-07-19T10:51:06;3.95;;;0.32;;
49812;SDS011;35706;52.100;5.056;2022-07-19T10:56:16;4.75;;;0.40;;
49812;SDS011;35706;52.100;5.056;2022-07-19T10:58:47;6.10;;;0.40;;
49812;SDS011;35706;52.100;5.056;2022-07-19T11:01:15;1.77;;;0.40;;
49812;SDS011;35706;52.100;5.056;2022-07-19T11:03:45;4.93;;;0.40;;
49812;SDS011;35706;52.100;5.056;2022-07-19T11:06:25;2.25;;;0.30;;
49812;SDS011;35706;52.100;5.056;2022-07-19T11:08:55;3.83;;;0.30;;
49812;SDS011;35706;52.100;5.056;2022-07-19T11:11:24;3.88;;;0.35;;
49812;SDS011;35706;52.100;5.056;2022-07-19T11:13:52;4.43;;;0.30;;
49812;SDS011;35706;52.100;5.056;2022-07-19T11:16:18;4.25;;;0.30;;
49812;SDS011;35706;52.100;5.056;2022-07-19T11:18:44;3.88;;;0.30;;
49812;SDS011;35706;52.100;5.056;2022-07-19T11:21:11;4.55;;;0.30;;
49812;SDS011;35706;52.100;5.056;2022-07-19T11:23:39;1.83;;;0.30;;
49812;SDS011;35706;52.100;5.056;2022-07-19T11:26:16;2.22;;;0.32;;
49812;SDS011;35706;52.100;5.056;2022-07-19T11:28:43;3.80;;;0.40;;
49812;SDS011;35706;52.100;5.056;2022-07-19T11:31:11;4.40;;;0.38;;
49812;SDS011;35706;52.100;5.056;2022-07-19T11:33:36;3.05;;;0.30;;
49812;SDS011;35706;52.100;5.056;2022-07-19T11:36:01;3.00;;;0.30;;
49812;SDS011;35706;52.100;5.056;2022-07-19T11:39:00;7.38;;;0.40;;
49812;SDS011;35706;52.100;5.056;2022-07-19T11:41:28;1.40;;;0.30;;
49812;SDS011;35706;52.100;5.056;2022-07-19T11:46:26;5.05;;;0.30;;
49812;SDS011;35706;52.100;5.056;2022-07-19T11:48:57;2.22;;;0.30;;
49812;SDS011;35706;52.100;5.056;2022-07-19T11:51:24;1.10;;;0.30;;
49812;SDS011;35706;52.100;5.056;2022-07-19T11:53:50;3.08;;;0.40;;
49812;SDS011;35706;52.100;5.056;2022-07-19T11:56:22;3.33;;;0.30;;
49812;SDS011;35706;52.100;5.056;2022-07-19T11:58:49;2.25;;;0.32;;
49812;SDS011;35706;52.100;5.056;2022-07-19T12:01:22;4.32;;;0.30;;
49812;SDS011;35706;52.100;5.056;2022-07-19T12:03:53;1.55;;;0.30;;
49812;SDS011;35706;52.100;5.056;2022-07-19T12:09:27;4.13;;;0.40;;
49812;SDS011;35706;52.100;5.056;2022-07-19T12:11:54;3.72;;;0.38;;
49812;SDS011;35706;52.100;5.056;2022-07-19T12:14:28;3.95;;;0.45;;
49812;SDS011;35706;52.100;5.056;2022-07-19T12:17:08;1.98;;;0.40;;
49812;SDS011;35706;52.100;5.056;2022-07-19T12:19:36;1.95;;;0.38;;
49812;SDS011;35706;52.100;5.056;2022-07-19T12:22:03;1.50;;;0.25;;
49812;SDS011;35706;52.100;5.056;2022-07-19T12:24:29;4.35;;;0.30;;
49812;SDS011;35706;52.100;5.056;2022-07-19T12:27:05;4.43;;;0.30;;
49812;SDS011;35706;52.100;5.056;2022-07-19T12:34:41;4.00;;;0.30;;
49812;SDS011;35706;52.100;5.056;2022-07-19T12:42:24;2.60;;;0.30;;
49812;SDS011;35706;52.100;5.056;2022-07-19T12:44:50;6.15;;;0.40;;
49812;SDS011;35706;52.100;5.056;2022-07-19T12:47:15;2.63;;;0.30;;
49812;SDS011;35706;52.100;5.056;2022-07-19T12:49:44;4.30;;;0.30;;
49812;SDS011;35706;52.100;5.056;2022-07-19T12:52:10;3.55;;;0.30;;
49812;SDS011;35706;52.100;5.056;2022-07-19T12:54:36;2.80;;;0.30;;
49812;SDS011;35706;52.100;5.056;2022-07-19T12:57:01;1.95;;;0.30;;
49812;SDS011;35706;52.100;5.056;2022-07-19T12:59:26;2.55;;;0.40;;
49812;SDS011;35706;52.100;5.056;2022-07-19T13:02:05;5.97;;;0.40;;
49812;SDS011;35706;52.100;5.056;2022-07-19T13:04:32;4.88;;;0.38;;
49812;SDS011;35706;52.100;5.056;2022-07-19T13:06:57;2.70;;;0.30;;
49812;SDS011;35706;52.100;5.056;2022-07-19T13:09:22;1.67;;;0.30;;
49812;SDS011;35706;52.100;5.056;2022-07-19T13:11:48;3.38;;;0.40;;
49812;SDS011;35706;52.100;5.056;2022-07-19T13:14:13;4.60;;;0.30;;
49812;SDS011;35706;52.100;5.056;2022-07-19T13:16:38;3.33;;;0.30;;
49812;SDS011;35706;52.100;5.056;2022-07-19T13:19:04;4.63;;;0.30;;
49812;SDS011;35706;52.100;5.056;2022-07-19T13:21:30;1.95;;;0.20;;
49812;SDS011;35706;52.100;5.056;2022-07-19T13:23:55;1.92;;;0.30;;
49812;SDS011;35706;52.100;5.056;2022-07-19T13:26:21;2.00;;;0.30;;
49812;SDS011;35706;52.100;5.056;2022-07-19T13:28:46;1.85;;;0.30;;
49812;SDS011;35706;52.100;5.056;2022-07-19T13:31:13;3.65;;;0.30;;
49812;SDS011;35706;52.100;5.056;2022-07-19T13:33:38;1.58;;;0.22;;
49812;SDS011;35706;52.100;5.056;2022-07-19T13:36:04;2.90;;;0.32;;
49812;SDS011;35706;52.100;5.056;2022-07-19T13:38:29;1.52;;;0.30;;
49812;SDS011;35706;52.100;5.056;2022-07-19T13:40:55;6.53;;;0.40;;
49812;SDS011;35706;52.100;5.056;2022-07-19T13:43:20;3.05;;;0.28;;
49812;SDS011;35706;52.100;5.056;2022-07-19T13:45:45;1.20;;;0.40;;
49812;SDS011;35706;52.100;5.056;2022-07-19T13:48:11;1.85;;;0.30;;
49812;SDS011;35706;52.100;5.056;2022-07-19T13:50:36;2.60;;;0.30;;
49812;SDS011;35706;52.100;5.056;2022-07-19T13:53:02;2.90;;;0.40;;
49812;SDS011;35706;52.100;5.056;2022-07-19T13:55:27;3.25;;;0.40;;
49812;SDS011;35706;52.100;5.056;2022-07-19T13:57:53;2.63;;;0.40;;
49812;SDS011;35706;52.100;5.056;2022-07-19T14:00:18;5.13;;;0.40;;
49812;SDS011;35706;52.100;5.056;2022-07-19T14:02:45;6.15;;;0.32;;
49812;SDS011;35706;52.100;5.056;2022-07-19T14:05:11;5.20;;;0.40;;
49812;SDS011;35706;52.100;5.056;2022-07-19T14:07:36;3.55;;;0.40;;
49812;SDS011;35706;52.100;5.056;2022-07-19T14:10:02;1.17;;;0.30;;
49812;SDS011;35706;52.100;5.056;2022-07-19T14:12:28;1.88;;;0.40;;
49812;SDS011;35706;52.100;5.056;2022-07-19T14:14:53;4.65;;;0.30;;
49812;SDS011;35706;52.100;5.056;2022-07-19T14:17:19;3.85;;;0.30;;
49812;SDS011;35706;52.100;5.056;2022-07-19T14:19:44;3.75;;;0.30;;
49812;SDS011;35706;52.100;5.056;2022-07-19T14:22:28;3.53;;;0.30;;
49812;SDS011;35706;52.100;5.056;2022-07-19T14:24:57;1.70;;;0.40;;
49812;SDS011;35706;52.100;5.056;2022-07-19T14:27:43;6.72;;;0.40;;
49812;SDS011;35706;52.100;5.056;2022-07-19T14:30:09;1.67;;;0.30;;
49812;SDS011;35706;52.100;5.056;2022-07-19T14:32:34;5.55;;;0.30;;
49812;SDS011;35706;52.100;5.056;2022-07-19T14:35:00;1.45;;;0.30;;
49812;SDS011;35706;52.100;5.056;2022-07-19T14:37:25;6.53;;;0.38;;
49812;SDS011;35706;52.100;5.056;2022-07-19T14:39:58;4.57;;;0.30;;
49812;SDS011;35706;52.100;5.056;2022-07-19T14:42:27;4.10;;;0.30;;
49812;SDS011;35706;52.100;5.056;2022-07-19T14:44:56;1.17;;;0.30;;
49812;SDS011;35706;52.100;5.056;2022-07-19T14:47:22;3.78;;;0.30;;
49812;SDS011;35706;52.100;5.056;2022-07-19T14:49:47;4.65;;;0.40;;
49812;SDS011;35706;52.100;5.056;2022-07-19T14:52:13;4.10;;;0.47;;
49812;SDS011;35706;52.100;5.056;2022-07-19T14:54:38;10.82;;;0.38;;
49812;SDS011;35706;52.100;5.056;2022-07-19T14:57:03;3.53;;;0.30;;
49812;SDS011;35706;52.100;5.056;2022-07-19T14:59:29;1.92;;;0.40;;
49812;SDS011;35706;52.100;5.056;2022-07-19T15:01:54;7.55;;;0.40;;
49812;SDS011;35706;52.100;5.056;2022-07-19T15:04:19;2.40;;;0.43;;
49812;SDS011;35706;52.100;5.056;2022-07-19T15:06:45;7.70;;;0.60;;
49812;SDS011;35706;52.100;5.056;2022-07-19T15:09:12;3.00;;;0.50;;
49812;SDS011;35706;52.100;5.056;2022-07-19T15:11:37;3.92;;;0.40;;
49812;SDS011;35706;52.100;5.056;2022-07-19T15:14:04;5.65;;;0.40;;
49812;SDS011;35706;52.100;5.056;2022-07-19T15:16:29;4.50;;;0.40;;
49812;SDS011;35706;52.100;5.056;2022-07-19T15:18:55;1.50;;;0.30;;
49812;SDS011;35706;52.100;5.056;2022-07-19T15:21:21;1.73;;;0.30;;
49812;SDS011;35706;52.100;5.056;2022-07-19T15:23:47;1.17;;;0.40;;
49812;SDS011;35706;52.100;5.056;2022-07-19T15:26:12;3.40;;;0.30;;
49812;SDS011;35706;52.100;5.056;2022-07-19T15:28:38;3.28;;;0.40;;
49812;SDS011;35706;52.100;5.056;2022-07-19T15:31:04;4.90;;;0.40;;
49812;SDS011;35706;52.100;5.056;2022-07-19T15:33:30;3.75;;;0.40;;
49812;SDS011;35706;52.100;5.056;2022-07-19T15:35:56;2.80;;;0.30;;
49812;SDS011;35706;52.100;5.056;2022-07-19T15:38:22;5.07;;;0.32;;
49812;SDS011;35706;52.100;5.056;2022-07-19T15:40:47;4.13;;;0.40;;
49812;SDS011;35706;52.100;5.056;2022-07-19T15:43:12;5.60;;;0.40;;
49812;SDS011;35706;52.100;5.056;2022-07-19T15:45:38;9.10;;;0.40;;
49812;SDS011;35706;52.100;5.056;2022-07-19T15:48:03;2.83;;;0.60;;
49812;SDS011;35706;52.100;5.056;2022-07-19T15:50:28;3.50;;;0.50;;
49812;SDS011;35706;52.100;5.056;2022-07-19T15:52:54;3.33;;;0.50;;
49812;SDS011;35706;52.100;5.056;2022-07-19T15:55:19;5.32;;;0.50;;
49812;SDS011;35706;52.100;5.056;2022-07-19T15:57:45;4.78;;;0.40;;
49812;SDS011;35706;52.100;5.056;2022-07-19T16:00:10;5.45;;;0.50;;
49812;SDS011;35706;52.100;5.056;2022-07-19T16:02:37;2.90;;;0.50;;
49812;SDS011;35706;52.100;5.056;2022-07-19T16:05:09;3.33;;;0.40;;
49812;SDS011;35706;52.100;5.056;2022-07-19T16:07:35;2.40;;;0.40;;
49812;SDS011;35706;52.100;5.056;2022-07-19T16:10:01;3.30;;;0.50;;
49812;SDS011;35706;52.100;5.056;2022-07-19T16:12:28;2.65;;;0.40;;
49812;SDS011;35706;52.100;5.056;2022-07-19T16:14:54;3.95;;;0.40;;
49812;SDS011;35706;52.100;5.056;2022-07-19T16:17:20;2.88;;;0.50;;
49812;SDS011;35706;52.100;5.056;2022-07-19T16:19:47;3.40;;;0.50;;
49812;SDS011;35706;52.100;5.056;2022-07-19T16:22:12;3.35;;;0.40;;